Yorklyn, Delaware
Current Conditions -  °F | °C
As of 10:51 PM on Wednesday 22 Oct 2014 (Local Time) from KILG Reporting Station
Overcast Overcast  
Wind Chill: 52°   Ceiling: 4400
Heat Index: 52°   Visibility: 10mi
Dew Point: 48°   Wind: 16mph
Humidity: 86%   Direction: 320°NW
Pressure: 29.84"   Gusts: 24mph
Location:  39.81°N, 75.67°W
Report Text: KILG 230251Z 32014G21KT 10SM FEW032 BKN044 OVC070 11/09 A2984 RMK AO2 RAE41 SLP103 P0000 60000 T01110089 58010
Loading
Personal Weather Stations






























Interactive Weather Map
Tropical Storm Tracking
New forecast layout! Learn more

10-Day Weather Forecast

Advertisements
Track Severe Weather on mobile